Time;durP1;ratioP1;P1;durP2;ratioP2;P2;SDS_P1;SDS_P2;PMS_P1;PMS_P2;Temp;Humidity;BMP_temperature;BMP_pressure;BME280_temperature;BME280_humidity;BME280_pressure;Samples;Min_cycle;Max_cycle;Signal;HPM_P1;HPM_P2
2023/05/03 00:03:12;;;;;;;21.90;10.80;;;6.90;99.90;;;;;;10078580;29;20438;-76
2023/05/03 00:08:34;;;;;;;19.53;9.20;;;6.90;1.00;;;;;;10066404;29;20228;-76
2023/05/03 00:13:54;;;;;;;21.37;10.70;;;6.90;99.90;;;;;;10078572;29;20264;-75
2023/05/03 00:19:16;;;;;;;13.90;8.47;;;6.70;1.00;;;;;;10080415;29;20306;-74
2023/05/03 00:24:44;;;;;;;13.53;6.70;;;6.70;99.90;;;;;;10079975;29;20196;-75
2023/05/03 00:30:06;;;;;;;8.73;5.00;;;6.70;1.00;;;;;;10078757;29;20254;-75
2023/05/03 00:35:27;;;;;;;7.90;4.33;;;6.80;99.90;;;;;;10078609;29;20227;-74
2023/05/03 00:40:53;;;;;;;7.60;3.90;;;6.80;13.30;;;;;;10078610;29;20196;-77
2023/05/03 00:46:14;;;;;;;6.43;3.50;;;6.80;99.90;;;;;;10077800;29;20403;-77
2023/05/03 00:51:36;;;;;;;6.93;4.17;;;6.80;99.90;;;;;;10078312;29;20265;-78
2023/05/03 00:56:58;;;;;;;8.20;4.17;;;6.70;99.90;;;;;;10078251;29;20234;-78
2023/05/03 01:02:20;;;;;;;11.93;5.40;;;6.70;99.90;;;;;;10077187;29;20205;-77
2023/05/03 01:07:52;;;;;;;11.63;6.10;;;6.60;99.90;;;;;;10084058;29;20261;-78
2023/05/03 01:13:49;;;;;;;15.53;8.67;;;6.40;99.90;;;;;;10084949;29;20215;-78
2023/05/03 01:19:16;;;;;;;17.93;8.13;;;;;;;;;;10060808;29;20245;-76
2023/05/03 01:24:40;;;;;;;18.60;8.97;;;5.80;99.90;;;;;;10034413;29;20212;-77
2023/05/03 01:30:04;;;;;;;19.20;10.30;;;;;;;;;;10065660;29;20247;-77
2023/05/03 01:35:36;;;;;;;18.83;10.67;;;5.50;99.90;;;;;;10086013;29;20234;-76
2023/05/03 01:41:01;;;;;;;21.33;11.60;;;5.50;99.90;;;;;;10084851;29;20185;-74
2023/05/03 01:46:22;;;;;;;13.53;7.90;;;5.40;99.90;;;;;;10085229;29;20324;-74
2023/05/03 01:51:43;;;;;;;12.43;6.37;;;5.60;99.90;;;;;;10084789;29;20452;-78
2023/05/03 01:57:04;;;;;;;8.23;5.80;;;5.70;99.90;;;;;;10084495;29;20476;-76
2023/05/03 02:02:25;;;;;;;11.37;6.43;;;5.80;99.90;;;;;;10082865;29;20208;-79
2023/05/03 02:07:46;;;;;;;11.67;6.33;;;5.50;99.90;;;;;;10084963;29;20209;-77
2023/05/03 02:13:08;;;;;;;13.23;5.17;;;5.40;99.90;;;;;;10081646;29;20205;-80
2023/05/03 02:18:32;;;;;;;13.13;4.90;;;5.50;99.90;;;;;;10070515;29;20289;-77
2023/05/03 02:23:53;;;;;;;9.47;4.70;;;5.70;99.90;;;;;;10083047;29;20513;-78
2023/05/03 02:29:15;;;;;;;6.70;4.23;;;5.80;99.90;;;;;;10083297;29;20229;-79
2023/05/03 02:34:36;;;;;;;12.53;4.87;;;5.90;99.90;;;;;;10082285;29;20255;-79
2023/05/03 02:39:57;;;;;;;6.67;3.90;;;5.90;99.90;;;;;;10082932;29;20220;-76
2023/05/03 02:45:18;;;;;;;8.83;4.57;;;5.90;99.90;;;;;;10095411;29;20386;-76
2023/05/03 02:50:39;;;;;;;7.10;3.77;;;5.90;99.90;;;;;;10083410;29;20444;-78
2023/05/03 02:56:00;;;;;;;7.10;4.27;;;5.80;99.90;;;;;;10082256;29;20223;-81
2023/05/03 03:01:21;;;;;;;8.50;3.80;;;5.80;99.90;;;;;;10081604;29;20214;-79
2023/05/03 03:06:43;;;;;;;11.47;4.93;;;5.80;99.90;;;;;;10083356;29;20455;-80
2023/05/03 03:12:05;;;;;;;15.30;7.60;;;5.70;99.90;;;;;;10081845;29;20559;-78
2023/05/03 03:17:27;;;;;;;18.90;9.17;;;5.40;99.90;;;;;;10073552;29;20259;-79
2023/05/03 03:22:48;;;;;;;13.07;6.63;;;5.10;99.90;;;;;;10081183;29;20197;-77
2023/05/03 03:28:09;;;;;;;9.60;4.80;;;5.20;99.90;;;;;;10081439;29;20245;-78
2023/05/03 03:33:31;;;;;;;10.63;4.23;;;5.40;99.90;;;;;;10080574;29;20238;-78
2023/05/03 03:38:59;;;;;;;8.63;3.97;;;5.60;99.90;;;;;;10080851;29;20208;-80
2023/05/03 03:44:20;;;;;;;9.20;4.63;;;5.60;99.90;;;;;;10079987;29;20552;-77
2023/05/03 03:49:42;;;;;;;8.27;4.03;;;5.80;99.90;;;;;;10029347;29;20232;-79
2023/05/03 03:55:04;;;;;;;7.70;3.83;;;5.80;99.90;;;;;;10016189;29;20235;-78
2023/05/03 04:00:26;;;;;;;8.83;4.43;;;5.80;99.90;;;;;;10053489;29;20238;-78
2023/05/03 04:05:57;;;;;;;10.43;5.17;;;5.80;99.90;;;;;;10080224;29;20377;-79
2023/05/03 04:11:20;;;;;;;10.27;4.27;;;5.90;99.90;;;;;;10079707;29;20216;-80
2023/05/03 04:16:46;;;;;;;8.93;4.63;;;5.90;99.90;;;;;;10080116;29;20233;-76
2023/05/03 04:22:08;;;;;;;6.10;4.00;;;6.00;99.90;;;;;;10066211;29;20228;-76
2023/05/03 04:27:29;;;;;;;10.20;4.17;;;6.00;99.90;;;;;;10066027;29;20401;-77
2023/05/03 04:32:53;;;;;;;9.20;4.03;;;6.10;99.90;;;;;;10079375;29;20232;-76
2023/05/03 04:38:18;;;;;;;9.40;4.20;;;6.20;99.90;;;;;;10079368;29;20248;-76
2023/05/03 04:43:39;;;;;;;9.13;4.53;;;6.30;99.90;;;;;;10078186;29;20246;-74
2023/05/03 04:49:01;;;;;;;8.63;3.97;;;6.30;99.90;;;;;;10065601;29;20222;-77
2023/05/03 04:54:22;;;;;;;9.77;4.30;;;6.30;99.90;;;;;;10078325;29;20223;-77
2023/05/03 04:59:44;;;;;;;8.87;4.07;;;6.30;99.90;;;;;;10077732;29;20215;-76
2023/05/03 05:05:06;;;;;;;7.13;3.90;;;6.40;99.90;;;;;;10078225;29;20201;-76
2023/05/03 05:10:28;;;;;;;11.07;3.97;;;6.50;99.90;;;;;;10078312;29;20202;-73
2023/05/03 05:15:51;;;;;;;6.47;3.40;;;6.50;99.90;;;;;;10077323;29;20228;-78
2023/05/03 05:21:13;;;;;;;10.20;3.87;;;6.70;99.90;;;;;;10078885;29;20198;-78
2023/05/03 05:26:35;;;;;;;9.30;4.50;;;6.80;99.90;;;;;;10064682;29;20217;-77
2023/05/03 05:31:56;;;;;;;7.43;3.83;;;7.00;99.90;;;;;;10077156;29;20244;-73
2023/05/03 05:37:18;;;;;;;5.27;3.80;;;7.20;99.90;;;;;;10077595;29;20308;-75
2023/05/03 05:42:40;;;;;;;5.63;3.53;;;7.30;99.90;;;;;;10076911;29;20424;-80
2023/05/03 05:48:02;;;;;;;7.53;4.17;;;7.60;99.90;;;;;;10064190;29;20208;-79
2023/05/03 05:53:24;;;;;;;8.63;3.73;;;7.80;99.90;;;;;;10081409;29;20250;-77
2023/05/03 05:58:51;;;;;;;7.87;3.97;;;8.30;99.90;;;;;;10070295;29;20312;-75
2023/05/03 06:04:12;;;;;;;6.90;3.80;;;8.80;99.10;;;;;;10084290;29;20201;-78
2023/05/03 06:09:33;;;;;;;5.50;2.90;;;9.30;97.20;;;;;;10084234;29;20197;-74
2023/05/03 06:14:57;;;;;;;6.80;4.07;;;9.80;85.50;;;;;;10082503;29;20219;-78
2023/05/03 06:20:25;;;;;;;8.83;2.57;;;10.40;1.00;;;;;;10083728;29;20198;-75
2023/05/03 06:25:47;;;;;;;12.10;3.10;;;11.20;1.00;;;;;;10083176;29;20208;-75
2023/05/03 06:31:10;;;;;;;4.20;2.23;;;11.80;1.00;;;;;;10082040;29;20275;-78
2023/05/03 06:36:31;;;;;;;3.83;2.67;;;12.30;1.00;;;;;;10069769;29;20536;-77
2023/05/03 06:41:53;;;;;;;7.97;2.67;;;12.80;1.00;;;;;;10082231;29;20298;-79
2023/05/03 06:47:14;;;;;;;8.00;2.80;;;13.10;1.00;;;;;;10069527;29;20237;-78
2023/05/03 06:52:35;;;;;;;4.97;2.33;;;13.70;1.00;;;;;;10082823;29;20198;-79
2023/05/03 06:57:56;;;;;;;4.63;1.83;;;14.10;1.00;;;;;;10068247;29;20595;-76
2023/05/03 07:03:18;;;;;;;2.83;2.13;;;14.60;1.00;;;;;;10081643;29;20430;-77
2023/05/03 07:08:39;;;;;;;6.43;2.28;;;14.90;1.00;;;;;;10083270;29;20199;-77
2023/05/03 07:14:00;;;;;;;3.58;2.42;;;14.90;1.00;;;;;;10082649;29;20200;-79
2023/05/03 07:19:21;;;;;;;5.47;2.40;;;15.40;1.00;;;;;;10081536;29;20428;-74
2023/05/03 07:24:42;;;;;;;5.38;2.47;;;15.50;1.00;;;;;;10082374;29;20196;-79
2023/05/03 07:30:04;;;;;;;3.33;1.73;;;15.90;99.90;;;;;;10067781;29;20559;-80
2023/05/03 07:35:26;;;;;;;8.35;2.63;;;16.20;99.90;;;;;;10080369;29;20277;-74
2023/05/03 07:40:47;;;;;;;2.60;1.80;;;16.70;99.90;;;;;;10080832;29;20205;-78
2023/05/03 07:46:08;;;;;;;4.22;2.00;;;17.20;99.90;;;;;;10078358;29;20221;-78
2023/05/03 07:51:33;;;;;;;3.60;1.90;;;17.20;99.90;;;;;;10081467;29;20196;-77
2023/05/03 07:56:54;;;;;;;2.58;1.70;;;17.20;99.90;;;;;;10079847;29;20236;-76
2023/05/03 08:02:16;;;;;;;3.50;2.15;;;17.80;99.90;;;;;;10079238;29;20281;-77
2023/05/03 08:07:37;;;;;;;3.75;1.88;;;17.50;99.90;;;;;;10080952;29;20200;-78
2023/05/03 08:12:58;;;;;;;32.88;2.83;;;17.30;99.90;;;;;;10080553;29;20493;-77
2023/05/03 08:18:19;;;;;;;3.22;1.50;;;17.20;99.90;;;;;;10063621;29;20237;-74
2023/05/03 08:23:42;;;;;;;4.68;1.67;;;17.20;99.90;;;;;;10060995;29;20520;-77
2023/05/03 08:29:03;;;;;;;4.68;2.15;;;17.20;99.90;;;;;;10043079;29;20251;-76
2023/05/03 08:34:24;;;;;;;3.25;1.92;;;16.20;99.90;;;;;;10052171;29;20198;-79
2023/05/03 08:39:48;;;;;;;2.35;1.60;;;16.90;99.90;;;;;;10074469;29;20222;-76
2023/05/03 08:45:14;;;;;;;4.55;1.92;;;18.00;99.90;;;;;;10078476;29;20267;-79
2023/05/03 08:50:40;;;;;;;3.30;2.00;;;18.50;99.90;;;;;;10091682;29;20190;-78
2023/05/03 08:56:06;;;;;;;4.18;1.52;;;19.20;99.90;;;;;;10081303;29;20295;-80
2023/05/03 09:01:27;;;;;;;2.78;1.33;;;18.90;99.90;;;;;;10101117;29;20499;-78
2023/05/03 09:06:49;;;;;;;5.55;2.35;;;18.80;99.90;;;;;;10118126;29;20202;-77
2023/05/03 09:12:10;;;;;;;9.20;3.65;;;18.90;99.90;;;;;;10108110;29;20277;-78
2023/05/03 09:17:31;;;;;;;3.00;1.83;;;17.40;99.90;;;;;;10092195;29;20308;-76
2023/05/03 09:22:53;;;;;;;2.58;1.60;;;17.60;99.90;;;;;;10079372;29;20194;-79
2023/05/03 09:28:18;;;;;;;2.63;1.20;;;18.80;99.90;;;;;;10083198;29;20241;-79
2023/05/03 09:33:40;;;;;;;32.38;2.42;;;19.60;99.90;;;;;;10086692;29;20277;-79
2023/05/03 09:39:15;;;;;;;1.98;1.13;;;20.00;99.90;;;;;;10085323;29;20313;-78
2023/05/03 09:44:47;;;;;;;2.53;1.20;;;18.90;99.90;;;;;;10084727;29;20202;-79
2023/05/03 09:50:09;;;;;;;2.03;1.38;;;17.70;99.90;;;;;;10069803;29;20259;-78
2023/05/03 09:55:32;;;;;;;2.60;1.63;;;18.10;99.90;;;;;;10085686;29;20226;-78
2023/05/03 10:00:54;;;;;;;2.33;0.90;;;17.40;99.90;;;;;;10099076;29;20212;-78
2023/05/03 10:06:37;;;;;;;7.07;2.45;;;17.10;99.90;;;;;;10084737;29;20201;-77
2023/05/03 10:12:01;;;;;;;4.93;2.03;;;16.70;99.90;;;;;;10104539;29;20197;-77
2023/05/03 10:17:27;;;;;;;1.30;1.20;;;16.50;99.90;;;;;;10080038;29;20454;-78
2023/05/03 10:23:04;;;;;;;4.10;1.70;;;18.20;99.90;;;;;;10098017;29;20223;-76
2023/05/03 10:28:25;;;;;;;4.35;1.52;;;18.20;99.90;;;;;;10081553;29;20291;-79
2023/05/03 10:33:47;;;;;;;8.95;4.03;;;17.30;99.90;;;;;;10071343;29;20201;-79
2023/05/03 10:39:13;;;;;;;2.72;1.77;;;16.60;99.90;;;;;;10080603;29;20240;-77
2023/05/03 10:44:50;;;;;;;2.85;1.40;;;16.30;99.90;;;;;;10083751;29;20272;-81
2023/05/03 10:50:14;;;;;;;4.25;1.83;;;16.90;99.90;;;;;;10083950;29;20214;-79
2023/05/03 10:55:35;;;;;;;8.15;3.63;;;16.60;99.90;;;;;;10082177;29;20544;-79
2023/05/03 11:00:57;;;;;;;3.17;1.58;;;17.30;99.90;;;;;;10082831;29;20516;-79
2023/05/03 11:06:28;;;;;;;3.85;1.77;;;18.10;99.90;;;;;;10082835;29;20229;-79
2023/05/03 11:11:50;;;;;;;1.17;0.90;;;18.80;99.90;;;;;;10082681;29;20202;-78
2023/05/03 11:17:11;;;;;;;2.28;1.40;;;19.50;99.90;;;;;;10069091;29;20230;-78
2023/05/03 11:22:33;;;;;;;3.30;1.38;;;20.00;99.90;;;;;;10081454;29;20206;-79
2023/05/03 11:27:55;;;;;;;2.83;1.60;;;18.70;99.90;;;;;;10082489;29;20234;-80
2023/05/03 11:33:16;;;;;;;3.38;1.85;;;19.10;99.90;;;;;;10082644;29;20191;-79
2023/05/03 11:38:38;;;;;;;2.45;1.50;;;18.70;99.90;;;;;;10082106;29;20230;-78
2023/05/03 11:44:00;;;;;;;4.43;1.60;;;18.10;99.90;;;;;;10081814;29;20214;-74
2023/05/03 11:49:28;;;;;;;3.45;1.30;;;18.20;99.90;;;;;;10079351;29;20206;-78
2023/05/03 11:54:50;;;;;;;2.47;1.55;;;18.70;99.90;;;;;;10082397;29;20501;-76
2023/05/03 12:00:18;;;;;;;2.50;1.70;;;18.30;99.90;;;;;;10082777;29;20226;-77
2023/05/03 12:05:40;;;;;;;2.45;1.42;;;17.70;99.90;;;;;;10082477;29;20268;-78
2023/05/03 12:11:01;;;;;;;4.05;1.42;;;17.20;99.90;;;;;;10081954;29;20208;-79
2023/05/03 12:16:23;;;;;;;1.77;1.13;;;16.70;99.90;;;;;;10080691;29;20230;-78
2023/05/03 12:21:46;;;;;;;1.35;1.25;;;16.50;99.90;;;;;;10080355;29;20253;-77
2023/05/03 12:27:15;;;;;;;3.03;1.30;;;16.30;99.90;;;;;;10080091;29;20213;-75
2023/05/03 12:32:38;;;;;;;8.55;2.15;;;16.30;99.90;;;;;;10067912;29;20243;-77
2023/05/03 12:38:05;;;;;;;2.05;1.15;;;16.30;99.90;;;;;;10079681;29;20550;-76
2023/05/03 12:43:29;;;;;;;3.10;1.40;;;16.40;99.90;;;;;;10080470;29;20249;-77
2023/05/03 12:48:51;;;;;;;2.60;1.30;;;16.60;99.90;;;;;;10077445;29;20211;-78
2023/05/03 12:54:13;;;;;;;6.35;1.45;;;16.80;99.90;;;;;;10079611;29;20201;-79
2023/05/03 12:59:36;;;;;;;4.07;1.63;;;16.70;99.90;;;;;;10079236;29;20449;-78
2023/05/03 13:04:59;;;;;;;5.45;2.40;;;16.80;99.90;;;;;;10077385;29;20210;-78
2023/05/03 13:10:21;;;;;;;2.22;1.60;;;16.80;99.90;;;;;;10079115;29;20240;-79
2023/05/03 13:15:43;;;;;;;3.60;2.10;;;16.60;99.90;;;;;;10077432;29;20249;-78
2023/05/03 13:21:05;;;;;;;2.80;1.80;;;16.40;99.90;;;;;;10077733;29;20220;-78
2023/05/03 13:26:26;;;;;;;4.35;2.70;;;16.40;99.90;;;;;;10078018;29;20201;-79
2023/05/03 13:31:47;;;;;;;5.15;3.47;;;16.30;99.90;;;;;;10077551;29;20229;-78
2023/05/03 13:37:10;;;;;;;4.78;1.70;;;16.40;99.90;;;;;;10078490;29;20221;-77
2023/05/03 13:42:32;;;;;;;3.33;1.65;;;16.30;99.90;;;;;;10077666;29;20281;-77
2023/05/03 13:47:53;;;;;;;3.33;1.45;;;16.20;99.90;;;;;;10062551;29;20301;-74
2023/05/03 13:53:24;;;;;;;4.80;2.60;;;16.30;99.90;;;;;;10040226;29;20419;-78
2023/05/03 13:58:45;;;;;;;5.68;1.85;;;16.30;99.90;;;;;;10040139;29;20244;-79
2023/05/03 14:04:07;;;;;;;5.15;2.13;;;16.20;99.90;;;;;;10062075;29;20233;-78
2023/05/03 14:09:28;;;;;;;2.60;1.50;;;16.30;99.90;;;;;;10078214;29;20206;-78
2023/05/03 14:14:49;;;;;;;2.22;1.33;;;16.20;99.90;;;;;;10067974;29;20201;-75
2023/05/03 14:20:11;;;;;;;3.47;1.75;;;16.30;99.90;;;;;;10084184;29;20531;-73
2023/05/03 14:25:33;;;;;;;3.67;1.73;;;16.20;99.90;;;;;;10083515;29;20205;-79
2023/05/03 14:30:55;;;;;;;9.02;2.10;;;15.90;99.90;;;;;;10082968;29;20435;-77
2023/05/03 14:36:19;;;;;;;7.63;3.67;;;15.80;99.90;;;;;;10083325;29;20462;-77
2023/05/03 14:41:41;;;;;;;8.40;3.00;;;15.80;99.90;;;;;;10083148;29;20566;-77
2023/05/03 14:47:05;;;;;;;3.35;2.20;;;15.60;99.90;;;;;;10082856;29;20259;-78
2023/05/03 14:52:27;;;;;;;5.95;3.45;;;15.40;99.90;;;;;;10082813;29;20207;-77
2023/05/03 14:57:48;;;;;;;6.60;2.45;;;15.60;99.90;;;;;;10083282;29;20230;-78
2023/05/03 15:03:10;;;;;;;4.25;2.58;;;15.60;99.90;;;;;;10080992;29;20253;-77
2023/05/03 15:08:32;;;;;;;3.05;2.33;;;15.50;99.90;;;;;;10083309;29;20210;-78
2023/05/03 15:13:53;;;;;;;3.63;2.40;;;15.60;99.90;;;;;;10082420;29;20233;-76
2023/05/03 15:19:14;;;;;;;4.53;2.50;;;15.60;99.90;;;;;;10062895;29;20247;-74
2023/05/03 15:24:35;;;;;;;5.97;3.05;;;15.40;99.90;;;;;;10081761;29;20197;-74
2023/05/03 15:29:56;;;;;;;7.03;3.20;;;15.20;99.90;;;;;;10080407;29;20320;-76
2023/05/03 15:35:18;;;;;;;4.55;2.70;;;15.10;99.90;;;;;;10081049;29;20254;-76
2023/05/03 15:40:40;;;;;;;3.58;2.70;;;15.00;99.90;;;;;;10081342;29;20224;-73
2023/05/03 15:46:01;;;;;;;7.10;3.42;;;15.00;99.90;;;;;;10080541;29;20233;-77
2023/05/03 15:51:22;;;;;;;4.28;2.83;;;14.70;99.90;;;;;;10080059;29;20206;-78
2023/05/03 15:56:43;;;;;;;8.35;2.78;;;14.70;99.90;;;;;;10079420;29;20252;-77
2023/05/03 16:02:05;;;;;;;5.88;2.20;;;14.70;99.90;;;;;;10081356;29;20281;-77
2023/05/03 16:07:26;;;;;;;6.07;2.03;;;14.70;99.90;;;;;;10065875;29;20507;-76
2023/05/03 16:12:48;;;;;;;5.10;2.25;;;14.80;99.90;;;;;;10079730;29;20207;-78
2023/05/03 16:18:10;;;;;;;5.88;3.25;;;15.00;99.90;;;;;;10079174;29;20241;-76
2023/05/03 16:23:31;;;;;;;4.65;2.15;;;15.00;99.90;;;;;;10079519;29;20216;-78
2023/05/03 16:28:52;;;;;;;4.47;1.80;;;15.00;99.90;;;;;;10079291;29;20318;-76
2023/05/03 16:34:13;;;;;;;4.88;1.45;;;15.00;99.90;;;;;;10077801;29;20215;-78
2023/05/03 16:39:34;;;;;;;2.40;1.20;;;14.90;99.90;;;;;;10079683;29;20361;-75
2023/05/03 16:44:55;;;;;;;4.30;1.63;;;14.80;99.90;;;;;;10078886;29;20519;-77
2023/05/03 16:50:17;;;;;;;6.63;2.72;;;14.80;99.90;;;;;;10079425;29;20307;-77
2023/05/03 16:55:38;;;;;;;7.97;2.47;;;14.60;99.90;;;;;;10079346;29;20269;-78
2023/05/03 17:00:59;;;;;;;4.68;1.73;;;14.60;99.90;;;;;;10078774;29;20281;-78
2023/05/03 17:06:20;;;;;;;4.13;1.20;;;14.50;99.90;;;;;;10078374;29;20518;-77
2023/05/03 17:11:41;;;;;;;2.47;1.15;;;14.30;99.90;;;;;;10078946;29;20205;-78
2023/05/03 17:17:02;;;;;;;5.13;1.65;;;14.10;99.90;;;;;;10076955;29;20236;-76
2023/05/03 17:22:23;;;;;;;4.47;2.05;;;13.70;99.90;;;;;;10077850;29;20419;-78
2023/05/03 17:27:44;;;;;;;5.45;2.40;;;13.50;99.90;;;;;;10077981;29;20392;-77
2023/05/03 17:33:06;;;;;;;5.72;2.78;;;13.40;99.90;;;;;;10064301;29;20200;-77
2023/05/03 17:38:27;;;;;;;10.93;2.63;;;13.20;99.90;;;;;;10077574;29;20255;-73
2023/05/03 17:43:48;;;;;;;4.65;1.92;;;13.10;99.90;;;;;;10077189;29;20219;-77
2023/05/03 17:49:09;;;;;;;3.67;1.98;;;12.90;99.90;;;;;;10081170;29;20231;-76
2023/05/03 17:54:31;;;;;;;4.32;2.20;;;12.70;99.90;;;;;;10085008;29;20199;-77
2023/05/03 17:59:52;;;;;;;4.97;2.40;;;12.60;99.90;;;;;;10084695;29;20230;-78
2023/05/03 18:05:16;;;;;;;6.10;2.92;;;12.60;99.90;;;;;;10071304;29;20434;-72
2023/05/03 18:10:40;;;;;;;6.72;3.30;;;12.50;99.90;;;;;;10084464;29;20248;-75
2023/05/03 18:16:07;;;;;;;11.77;7.10;;;12.50;99.90;;;;;;10082439;29;20216;-77
2023/05/03 18:21:29;;;;;;;13.45;6.32;;;12.30;99.90;;;;;;10085137;29;20434;-78
2023/05/03 18:26:50;;;;;;;10.88;7.13;;;12.20;99.90;;;;;;10084338;29;20204;-77
2023/05/03 18:32:12;;;;;;;8.95;5.93;;;12.10;99.90;;;;;;10084662;29;20277;-74
2023/05/03 18:37:33;;;;;;;4.80;3.40;;;12.00;99.90;;;;;;10084172;29;20237;-75
2023/05/03 18:42:54;;;;;;;4.85;3.33;;;12.00;99.90;;;;;;10083895;29;20203;-72
2023/05/03 18:48:15;;;;;;;11.23;6.90;;;11.90;99.90;;;;;;10084147;29;20203;-78
2023/05/03 18:53:36;;;;;;;17.45;9.77;;;11.80;99.90;;;;;;10068677;29;20291;-74
2023/05/03 18:58:58;;;;;;;19.58;15.48;;;11.60;99.90;;;;;;10082205;29;20227;-77
2023/05/03 19:04:19;;;;;;;25.73;15.80;;;11.40;99.90;;;;;;10069968;29;20206;-76
2023/05/03 19:09:40;;;;;;;48.15;20.85;;;11.30;99.90;;;;;;10085458;29;20217;-74
2023/05/03 19:15:02;;;;;;;26.45;12.93;;;11.20;99.90;;;;;;10087452;29;20449;-74
2023/05/03 19:20:23;;;;;;;26.10;9.97;;;11.00;99.90;;;;;;10081892;29;20264;-76
2023/05/03 19:25:44;;;;;;;28.33;11.93;;;11.00;99.90;;;;;;10082044;29;20249;-74
2023/05/03 19:31:05;;;;;;;22.83;12.97;;;10.90;99.90;;;;;;10082609;29;20603;-73
2023/05/03 19:36:26;;;;;;;29.77;13.50;;;10.90;99.90;;;;;;10082279;29;20535;-77
2023/05/03 19:41:49;;;;;;;19.95;11.80;;;10.70;99.90;;;;;;10080922;29;20233;-79
2023/05/03 19:47:10;;;;;;;31.85;17.30;;;10.60;99.90;;;;;;10080586;29;20204;-75
2023/05/03 19:52:31;;;;;;;32.30;17.67;;;10.60;99.90;;;;;;10031742;29;20202;-79
2023/05/03 19:57:53;;;;;;;30.65;16.13;;;10.50;99.90;;;;;;10052048;29;20312;-73
2023/05/03 20:03:14;;;;;;;20.27;11.70;;;10.50;99.90;;;;;;10080020;29;20198;-77
2023/05/03 20:08:35;;;;;;;21.98;11.85;;;10.40;99.90;;;;;;10077870;29;20209;-78
2023/05/03 20:13:56;;;;;;;17.77;9.20;;;10.30;99.90;;;;;;10068837;29;20503;-79
2023/05/03 20:19:17;;;;;;;12.77;6.57;;;10.20;99.90;;;;;;10057683;29;20292;-76
2023/05/03 20:24:38;;;;;;;16.07;8.80;;;10.20;99.90;;;;;;10041591;29;20195;-78
2023/05/03 20:29:59;;;;;;;17.20;9.37;;;10.20;99.90;;;;;;10055509;29;20256;-76
2023/05/03 20:35:20;;;;;;;22.55;10.63;;;10.10;99.90;;;;;;10079177;29;20371;-78
2023/05/03 20:40:42;;;;;;;17.80;9.33;;;9.90;99.90;;;;;;10080213;29;20225;-75
2023/05/03 20:46:03;;;;;;;16.80;9.50;;;9.80;99.90;;;;;;10074789;29;20238;-73
2023/05/03 20:51:24;;;;;;;16.50;9.63;;;9.70;99.90;;;;;;10071408;29;20257;-74
2023/05/03 20:56:45;;;;;;;17.60;8.97;;;9.70;99.90;;;;;;10078421;29;20220;-77
2023/05/03 21:02:06;;;;;;;17.63;9.80;;;9.60;1.00;;;;;;10078563;29;20273;-76
2023/05/03 21:07:27;;;;;;;29.43;13.63;;;9.50;1.00;;;;;;10040213;29;20398;-76
2023/05/03 21:12:49;;;;;;;41.03;21.73;;;9.30;1.00;;;;;;10040119;29;20201;-78
2023/05/03 21:18:10;;;;;;;40.03;20.67;;;9.10;1.00;;;;;;10087270;29;20227;-75
2023/05/03 21:23:31;;;;;;;33.53;19.27;;;8.90;1.00;;;;;;10081097;29;20233;-77
2023/05/03 21:28:52;;;;;;;53.53;25.10;;;8.90;1.00;;;;;;10086570;29;20310;-77
2023/05/03 21:34:13;;;;;;;54.77;26.97;;;8.80;1.00;;;;;;10082241;29;20209;-77
2023/05/03 21:39:34;;;;;;;48.77;26.87;;;8.80;50.10;;;;;;10086218;29;20269;-75
2023/05/03 21:44:56;;;;;;;44.80;21.37;;;8.70;19.10;;;;;;10085444;29;20208;-75
2023/05/03 21:50:18;;;;;;;39.77;20.57;;;8.60;96.40;;;;;;10071273;29;20209;-77
2023/05/03 21:55:39;;;;;;;46.80;18.60;;;8.40;99.90;;;;;;10072033;29;20273;-78
2023/05/03 22:01:00;;;;;;;30.43;15.97;;;8.20;99.90;;;;;;10083648;29;20272;-73
2023/05/03 22:06:21;;;;;;;50.40;23.50;;;8.20;99.90;;;;;;10084760;29;20201;-76
2023/05/03 22:11:42;;;;;;;48.23;24.03;;;8.20;99.90;;;;;;10071374;29;20262;-75
2023/05/03 22:17:03;;;;;;;37.37;17.97;;;8.10;99.90;;;;;;10084109;29;20224;-77
2023/05/03 22:22:24;;;;;;;31.00;15.87;;;8.00;99.90;;;;;;10085092;29;20296;-74
2023/05/03 22:27:45;;;;;;;35.43;16.90;;;7.90;1.00;;;;;;10084704;29;20197;-76
2023/05/03 22:33:06;;;;;;;39.20;19.07;;;7.90;1.00;;;;;;10081432;29;20220;-75
2023/05/03 22:38:28;;;;;;;46.07;22.40;;;7.90;1.00;;;;;;10083494;29;20239;-77
2023/05/03 22:43:49;;;;;;;45.30;22.37;;;7.80;1.00;;;;;;10084070;29;20191;-75
2023/05/03 22:49:10;;;;;;;45.43;22.20;;;7.70;1.00;;;;;;10082651;29;20207;-75
2023/05/03 22:54:31;;;;;;;96.27;37.47;;;7.70;1.00;;;;;;10082648;29;20287;-77
2023/05/03 22:59:52;;;;;;;64.97;30.73;;;7.70;99.90;;;;;;10082293;29;20241;-75
2023/05/03 23:05:13;;;;;;;56.57;26.80;;;7.50;99.90;;;;;;10082664;29;20267;-77
2023/05/03 23:10:34;;;;;;;49.97;25.87;;;7.40;99.90;;;;;;10069566;29;20196;-77
2023/05/03 23:15:56;;;;;;;45.10;24.10;;;7.30;99.90;;;;;;10082036;29;20223;-78
2023/05/03 23:21:17;;;;;;;38.70;20.90;;;7.20;99.90;;;;;;10043927;29;20281;-76
2023/05/03 23:26:38;;;;;;;40.47;20.93;;;7.10;99.90;;;;;;10030457;29;20204;-77
2023/05/03 23:31:59;;;;;;;39.33;20.37;;;7.00;1.00;;;;;;10054332;29;20276;-77
2023/05/03 23:37:20;;;;;;;47.87;24.53;;;7.00;1.00;;;;;;10081516;29;20269;-77
2023/05/03 23:42:42;;;;;;;51.60;24.90;;;7.00;1.00;;;;;;10081132;29;20200;-75
2023/05/03 23:48:03;;;;;;;56.20;24.80;;;6.80;1.00;;;;;;10079736;29;20404;-78
2023/05/03 23:53:24;;;;;;;50.93;23.17;;;6.70;1.00;;;;;;10080272;29;20285;-77
2023/05/03 23:58:45;;;;;;;52.00;21.30;;;6.70;1.00;;;;;;10057416;29;20285;-77
